createdAt,value
2022-10-26T00:00:02.860Z,95.24
2022-10-26T00:01:02.816Z,95.04
2022-10-26T00:02:02.146Z,95.14
2022-10-26T00:03:02.152Z,94.84
2022-10-26T00:04:02.055Z,94.63
2022-10-26T00:05:01.852Z,94.63
2022-10-26T00:06:02.136Z,94.84
2022-10-26T00:07:01.958Z,94.69
2022-10-26T00:08:02.586Z,94.69
2022-10-26T00:09:02.220Z,94.28
2022-10-26T00:10:02.108Z,94.08
2022-10-26T00:11:01.994Z,94.28
2022-10-26T00:12:02.558Z,94.08
2022-10-26T00:13:02.668Z,93.77
2022-10-26T00:14:02.624Z,93.98
2022-10-26T00:15:03.188Z,93.87
2022-10-26T00:16:02.689Z,93.57
2022-10-26T00:17:01.811Z,93.57
2022-10-26T00:18:02.134Z,93.52
2022-10-26T00:19:02.399Z,93.32
2022-10-26T00:20:02.217Z,93.32
2022-10-26T00:21:02.331Z,93.32
2022-10-26T00:22:02.290Z,93.43
2022-10-26T00:23:02.489Z,93.22
2022-10-26T00:24:02.285Z,93.32
2022-10-26T00:25:02.011Z,93.22
2022-10-26T00:26:02.595Z,93.32
2022-10-26T00:27:02.713Z,93.32
2022-10-26T00:28:02.810Z,93.43
2022-10-26T00:29:02.943Z,93.22
2022-10-26T00:30:02.619Z,93.22
2022-10-26T00:31:02.988Z,93.32
2022-10-26T00:32:02.976Z,93.43
2022-10-26T00:33:02.911Z,93.12
2022-10-26T00:34:02.714Z,93.02
2022-10-26T00:35:10.668Z,93.12
2022-10-26T00:36:02.928Z,92.97
2022-10-26T00:37:01.786Z,92.77
2022-10-26T00:38:02.287Z,92.87
2022-10-26T00:39:01.643Z,92.97
2022-10-26T00:40:01.714Z,92.97
2022-10-26T00:41:02.202Z,93.07
2022-10-26T00:42:02.440Z,92.77
2022-10-26T00:43:02.508Z,92.26
2022-10-26T00:44:02.417Z,92.16
2022-10-26T00:45:02.939Z,92.16
2022-10-26T00:46:02.479Z,92.16
2022-10-26T00:47:02.001Z,92.67
2022-10-26T00:48:02.006Z,93.07
2022-10-26T00:49:02.180Z,93.59
2022-10-26T00:50:02.015Z,93.18
2022-10-26T00:51:01.814Z,92.87
2022-10-26T00:52:02.620Z,92.67
2022-10-26T00:53:02.457Z,92.47
2022-10-26T00:54:02.513Z,92.57
2022-10-26T00:55:02.156Z,92.47
2022-10-26T00:56:02.534Z,92.06
2022-10-26T00:57:02.274Z,92.22
2022-10-26T00:58:02.774Z,92.42
2022-10-26T00:59:02.607Z,92.52
2022-10-26T01:00:02.182Z,92.22
2022-10-26T01:01:02.190Z,92.02
2022-10-26T01:02:02.737Z,92.12
2022-10-26T01:03:03.127Z,92.02
2022-10-26T01:04:02.925Z,91.61
2022-10-26T01:05:02.914Z,91.51
2022-10-26T01:06:02.646Z,91.91
2022-10-26T01:07:01.970Z,92.02
2022-10-26T01:08:02.389Z,91.91
2022-10-26T01:09:02.257Z,92.02
2022-10-26T01:10:02.525Z,91.91
2022-10-26T01:11:02.502Z,91.91
2022-10-26T01:12:02.341Z,92.22
2022-10-26T01:13:02.241Z,92.42
2022-10-26T01:14:02.449Z,92.12
2022-10-26T01:15:02.344Z,92.22
2022-10-26T01:16:02.101Z,92.22
2022-10-26T01:18:02.337Z,92.32
2022-10-26T01:19:02.781Z,92.22
2022-10-26T01:20:02.567Z,92.12
2022-10-26T01:21:02.838Z,92.32
2022-10-26T01:22:02.718Z,92.22
2022-10-26T01:23:02.420Z,92.32
2022-10-26T01:24:02.932Z,92.42
2022-10-26T01:25:02.712Z,92.42
2022-10-26T01:26:02.636Z,92.42
2022-10-26T01:27:02.868Z,92.52
2022-10-26T01:28:03.437Z,92.42
2022-10-26T01:29:03.513Z,92.52
2022-10-26T01:30:02.913Z,92.42
2022-10-26T01:31:02.979Z,92.52
2022-10-26T01:32:02.461Z,92.52
2022-10-26T01:33:02.197Z,92.52
2022-10-26T01:34:02.784Z,92.63
2022-10-26T01:35:02.401Z,92.63
2022-10-26T01:36:02.242Z,92.63
2022-10-26T01:37:02.777Z,92.63
2022-10-26T01:38:02.441Z,92.42
2022-10-26T01:39:02.370Z,92.42
2022-10-26T01:40:02.853Z,92.42
2022-10-26T01:41:02.588Z,92.63
2022-10-26T01:42:03.061Z,92.63
2022-10-26T01:43:02.812Z,92.32
2022-10-26T01:44:03.341Z,92.32
2022-10-26T01:45:03.076Z,92.32
2022-10-26T01:46:03.414Z,92.42
2022-10-26T01:47:02.632Z,92.32
2022-10-26T01:48:02.957Z,92.52
2022-10-26T01:49:02.636Z,92.28
2022-10-26T01:50:02.504Z,92.18
2022-10-26T01:51:02.866Z,92.28
2022-10-26T01:52:03.412Z,92.28
2022-10-26T01:53:03.498Z,92.18
2022-10-26T01:54:03.650Z,92.18
2022-10-26T01:55:03.123Z,91.97
2022-10-26T01:56:03.493Z,92.28
2022-10-26T01:57:02.710Z,92.48
2022-10-26T01:58:02.552Z,92.32
2022-10-26T01:59:03.023Z,92.38
2022-10-26T02:00:02.912Z,92.07
2022-10-26T02:01:03.312Z,92.07
2022-10-26T02:02:02.618Z,92.18
2022-10-26T02:03:02.740Z,92.18
2022-10-26T02:04:02.868Z,92.32
2022-10-26T02:05:02.474Z,92.32
2022-10-26T02:06:02.386Z,92.52
2022-10-26T02:07:02.909Z,92.72
2022-10-26T02:08:02.924Z,92.48
2022-10-26T02:09:02.815Z,92.28
2022-10-26T02:10:02.719Z,92.18
2022-10-26T02:11:02.581Z,92.28
2022-10-26T02:12:02.630Z,92.38
2022-10-26T02:13:03.207Z,92.38
2022-10-26T02:14:02.887Z,92.18
2022-10-26T02:15:03.015Z,92.07
2022-10-26T02:16:02.889Z,91.97
2022-10-26T02:17:02.469Z,91.87
2022-10-26T02:18:02.217Z,91.87
2022-10-26T02:19:02.405Z,91.73
2022-10-26T02:20:02.247Z,91.73
2022-10-26T02:21:02.565Z,91.52
2022-10-26T02:22:02.307Z,91.42
2022-10-26T02:23:02.221Z,91.32
2022-10-26T02:24:02.834Z,91.42
2022-10-26T02:25:02.512Z,91.22
2022-10-26T02:26:02.394Z,91.12
2022-10-26T02:27:02.505Z,90.97
2022-10-26T02:28:02.368Z,90.88
2022-10-26T02:29:02.963Z,90.97
2022-10-26T02:30:02.627Z,91.02
2022-10-26T02:31:02.526Z,91.02
2022-10-26T02:32:02.573Z,91.12
2022-10-26T02:33:03.131Z,91.32
2022-10-26T02:34:03.068Z,91.12
2022-10-26T02:35:02.968Z,91.42
2022-10-26T02:36:02.813Z,91.73
2022-10-26T02:37:02.162Z,91.52
2022-10-26T02:38:01.834Z,91.73
2022-10-26T02:39:02.243Z,91.77
2022-10-26T02:40:02.117Z,91.97
2022-10-26T02:41:02.103Z,92.03
2022-10-26T02:42:02.198Z,91.93
2022-10-26T02:43:02.362Z,91.93
2022-10-26T02:44:02.264Z,91.83
2022-10-26T02:45:02.016Z,91.93
2022-10-26T02:46:02.405Z,92.03
2022-10-26T02:47:02.490Z,91.93
2022-10-26T02:48:02.376Z,92.03
2022-10-26T02:49:03.114Z,91.93
2022-10-26T02:50:02.478Z,91.93
2022-10-26T02:51:02.446Z,92.13
2022-10-26T02:52:03.088Z,92.24
2022-10-26T02:53:02.512Z,92.13
2022-10-26T02:54:02.882Z,92.24
2022-10-26T02:55:02.728Z,92.13
2022-10-26T02:56:02.557Z,92.74
2022-10-26T02:57:03.122Z,92.74
2022-10-26T02:58:02.705Z,92.70
2022-10-26T02:59:03.010Z,92.70
2022-10-26T03:00:03.056Z,92.70
2022-10-26T03:01:02.407Z,92.80
2022-10-26T03:02:01.995Z,93.10
2022-10-26T03:03:02.547Z,93.21
2022-10-26T03:04:02.158Z,93.10
2022-10-26T03:05:02.585Z,92.80
2022-10-26T03:06:02.181Z,92.60
2022-10-26T03:07:02.295Z,92.40
2022-10-26T03:08:02.493Z,92.29
2022-10-26T03:09:02.380Z,92.29
2022-10-26T03:10:02.091Z,92.19
2022-10-26T03:11:02.404Z,91.99
2022-10-26T03:12:02.430Z,92.40
2022-10-26T03:13:02.317Z,92.49
2022-10-26T03:14:02.296Z,92.80
2022-10-26T03:15:02.332Z,92.60
2022-10-26T03:16:02.281Z,92.70
2022-10-26T03:17:01.793Z,92.60
2022-10-26T03:18:02.058Z,92.70
2022-10-26T03:19:02.151Z,92.80
2022-10-26T03:20:01.909Z,92.60
2022-10-26T03:21:02.392Z,92.70
2022-10-26T03:22:01.978Z,92.80
2022-10-26T03:23:01.967Z,92.80
2022-10-26T03:24:02.291Z,92.55
2022-10-26T03:25:02.655Z,92.14
2022-10-26T03:26:02.204Z,92.45
2022-10-26T03:27:02.741Z,92.80
2022-10-26T03:28:02.075Z,93.10
2022-10-26T03:29:01.969Z,93.30
2022-10-26T03:30:02.212Z,92.86
2022-10-26T03:31:02.235Z,93.10
2022-10-26T03:32:03.248Z,93.30
2022-10-26T03:33:02.891Z,93.26
2022-10-26T03:34:02.682Z,93.51
2022-10-26T03:35:02.688Z,93.81
2022-10-26T03:36:03.130Z,93.91
2022-10-26T03:37:02.055Z,94.12
2022-10-26T03:38:02.423Z,94.22
2022-10-26T03:39:02.361Z,94.32
2022-10-26T03:40:02.031Z,94.53
2022-10-26T03:41:02.329Z,94.53
2022-10-26T03:42:02.967Z,94.42
2022-10-26T03:43:02.583Z,94.62
2022-10-26T03:44:02.600Z,94.62
2022-10-26T03:45:02.572Z,94.73
2022-10-26T03:46:02.939Z,94.73
2022-10-26T03:47:02.796Z,94.83
2022-10-26T03:48:02.928Z,94.58
2022-10-26T03:49:02.680Z,94.68
2022-10-26T03:50:02.943Z,94.78
2022-10-26T03:51:02.942Z,94.78
2022-10-26T03:52:02.824Z,94.58
2022-10-26T03:53:02.582Z,94.68
2022-10-26T03:54:02.486Z,94.58
2022-10-26T03:55:02.385Z,94.58
2022-10-26T03:56:02.895Z,94.58
2022-10-26T03:57:02.608Z,94.58
2022-10-26T03:58:02.606Z,94.58
2022-10-26T03:59:02.400Z,94.58
2022-10-26T04:00:03.033Z,94.68
2022-10-26T04:01:02.729Z,94.58
2022-10-26T04:02:02.708Z,94.58
2022-10-26T04:03:02.645Z,94.64
2022-10-26T04:04:03.088Z,94.64
2022-10-26T04:05:03.052Z,94.34
2022-10-26T04:06:02.763Z,94.23
2022-10-26T04:07:02.471Z,94.13
2022-10-26T04:08:02.976Z,93.83
2022-10-26T04:09:02.785Z,94.03
2022-10-26T04:10:03.017Z,94.34
2022-10-26T04:11:04.647Z,94.43
2022-10-26T04:12:03.265Z,94.13
2022-10-26T04:13:03.070Z,94.03
2022-10-26T04:14:03.324Z,93.93
2022-10-26T04:16:03.360Z,93.88
2022-10-26T04:17:02.980Z,93.58
2022-10-26T04:18:02.751Z,93.58
2022-10-26T04:19:03.243Z,93.58
2022-10-26T04:20:03.018Z,93.38
2022-10-26T04:21:03.395Z,93.58
2022-10-26T04:22:02.306Z,93.38
2022-10-26T04:23:02.090Z,93.18
2022-10-26T04:24:02.210Z,93.38
2022-10-26T04:25:02.171Z,93.48
2022-10-26T04:26:02.323Z,93.48
2022-10-26T04:27:02.900Z,93.48
2022-10-26T04:28:02.826Z,93.27
2022-10-26T04:29:02.983Z,93.18
2022-10-26T04:30:03.092Z,93.18
2022-10-26T04:31:02.954Z,93.18
2022-10-26T04:32:02.563Z,93.18
2022-10-26T04:33:02.803Z,93.27
2022-10-26T04:34:02.440Z,93.18
2022-10-26T04:35:02.355Z,93.48
2022-10-26T04:36:02.645Z,93.23
2022-10-26T04:37:02.344Z,93.13
2022-10-26T04:38:02.064Z,93.13
2022-10-26T04:39:02.191Z,93.23
2022-10-26T04:40:02.561Z,93.43
2022-10-26T04:41:02.146Z,93.13
2022-10-26T04:42:02.267Z,92.93
2022-10-26T04:43:02.069Z,92.83
2022-10-26T04:44:02.009Z,93.03
2022-10-26T04:45:01.878Z,93.13
2022-10-26T04:46:01.979Z,92.93
2022-10-26T04:47:02.576Z,93.03
2022-10-26T04:48:02.233Z,92.93
2022-10-26T04:49:02.197Z,93.03
2022-10-26T04:50:02.532Z,93.13
2022-10-26T04:51:02.188Z,92.93
2022-10-26T04:52:02.676Z,93.13
2022-10-26T04:53:02.518Z,93.13
2022-10-26T04:54:02.749Z,93.23
2022-10-26T04:55:02.368Z,93.23
2022-10-26T04:56:02.546Z,93.33
2022-10-26T04:57:03.231Z,93.33
2022-10-26T04:58:03.095Z,92.72
2022-10-26T04:59:02.957Z,92.58
2022-10-26T05:00:03.142Z,92.72
2022-10-26T05:01:03.337Z,92.93
2022-10-26T05:02:01.716Z,92.68
2022-10-26T05:03:01.590Z,92.38
2022-10-26T05:04:01.542Z,92.38
2022-10-26T05:06:01.786Z,92.18
2022-10-26T05:07:02.197Z,92.28
2022-10-26T05:08:02.103Z,92.28
2022-10-26T05:09:02.536Z,92.28
2022-10-26T05:10:02.385Z,92.28
2022-10-26T05:11:02.227Z,92.38
2022-10-26T05:12:02.752Z,92.38
2022-10-26T05:13:02.429Z,92.28
2022-10-26T05:14:02.861Z,91.97
2022-10-26T05:15:05.024Z,92.08
2022-10-26T05:16:02.497Z,92.08
2022-10-26T05:17:02.330Z,91.97
2022-10-26T05:18:02.267Z,92.08
2022-10-26T05:19:02.064Z,91.97
2022-10-26T05:20:01.869Z,92.08
2022-10-26T05:21:01.866Z,92.18
2022-10-26T05:22:02.393Z,91.77
2022-10-26T05:23:02.139Z,91.97
2022-10-26T05:24:02.433Z,91.63
2022-10-26T05:25:01.933Z,91.57
2022-10-26T05:26:02.091Z,91.42
2022-10-26T05:27:02.669Z,91.57
2022-10-26T05:28:02.469Z,91.57
2022-10-26T05:29:02.287Z,91.67
2022-10-26T05:30:02.846Z,91.97
2022-10-26T05:31:02.409Z,92.08
2022-10-26T05:32:02.992Z,92.08
2022-10-26T05:33:02.565Z,92.08
2022-10-26T05:34:02.463Z,92.18
2022-10-26T05:35:03.041Z,92.08
2022-10-26T05:36:02.501Z,92.08
2022-10-26T05:37:02.029Z,92.08
2022-10-26T05:38:01.865Z,91.77
2022-10-26T05:39:01.883Z,91.87
2022-10-26T05:40:01.809Z,92.32
2022-10-26T05:41:01.507Z,92.22
2022-10-26T05:42:02.663Z,92.08
2022-10-26T05:43:02.554Z,92.18
2022-10-26T05:44:02.422Z,92.18
2022-10-26T05:45:02.156Z,91.67
2022-10-26T05:46:02.403Z,91.97
2022-10-26T05:47:02.600Z,91.77
2022-10-26T05:48:03.391Z,91.27
2022-10-26T05:49:02.492Z,91.16
2022-10-26T05:50:02.412Z,91.16
2022-10-26T05:51:02.974Z,91.06
2022-10-26T05:52:02.303Z,91.06
2022-10-26T05:53:02.162Z,91.16
2022-10-26T05:54:01.743Z,91.37
2022-10-26T05:55:02.249Z,91.27
2022-10-26T05:56:03.973Z,91.16
2022-10-26T05:57:02.910Z,91.27
2022-10-26T05:58:02.929Z,91.27
2022-10-26T05:59:02.431Z,91.27
2022-10-26T06:00:02.670Z,90.96
2022-10-26T06:01:02.627Z,91.27
2022-10-26T06:02:01.628Z,91.27
2022-10-26T06:03:01.498Z,91.37
2022-10-26T06:04:01.611Z,91.37
2022-10-26T06:05:01.898Z,91.67
2022-10-26T06:06:04.014Z,91.67
2022-10-26T06:07:01.740Z,91.47
2022-10-26T06:08:02.359Z,91.27
2022-10-26T06:09:01.863Z,91.27
2022-10-26T06:10:01.807Z,91.06
2022-10-26T06:11:02.322Z,90.92
2022-10-26T06:12:02.196Z,91.47
2022-10-26T06:13:02.191Z,91.47
2022-10-26T06:14:01.942Z,91.27
2022-10-26T06:15:02.264Z,91.27
2022-10-26T06:16:02.123Z,91.67
2022-10-26T06:17:01.985Z,91.42
2022-10-26T06:18:02.606Z,91.22
2022-10-26T06:19:02.340Z,91.87
2022-10-26T06:20:02.306Z,91.77
2022-10-26T06:21:02.241Z,91.73
2022-10-26T06:22:02.147Z,91.73
2022-10-26T06:23:02.353Z,91.73
2022-10-26T06:24:02.353Z,91.83
2022-10-26T06:25:02.311Z,91.22
2022-10-26T06:26:02.176Z,91.12
2022-10-26T06:27:02.408Z,91.63
2022-10-26T06:28:02.832Z,91.63
2022-10-26T06:29:02.673Z,91.63
2022-10-26T06:30:02.635Z,91.22
2022-10-26T06:31:02.613Z,91.42
2022-10-26T06:32:02.491Z,91.53
2022-10-26T06:33:11.529Z,91.32
2022-10-26T06:34:03.084Z,91.53
2022-10-26T06:35:07.016Z,91.32
2022-10-26T06:36:02.829Z,92.08
2022-10-26T06:37:01.602Z,92.38
2022-10-26T06:38:01.836Z,92.79
2022-10-26T06:39:01.612Z,92.58
2022-10-26T06:40:02.202Z,92.28
2022-10-26T06:41:01.790Z,92.28
2022-10-26T06:42:02.457Z,91.97
2022-10-26T06:43:02.846Z,91.87
2022-10-26T06:44:02.797Z,91.63
2022-10-26T06:45:02.583Z,91.87
2022-10-26T06:46:02.625Z,91.73
2022-10-26T06:47:03.189Z,91.42
2022-10-26T06:48:02.948Z,91.12
2022-10-26T06:49:02.479Z,91.02
2022-10-26T06:50:02.979Z,91.53
2022-10-26T06:51:02.952Z,91.12
2022-10-26T06:52:02.269Z,92.03
2022-10-26T06:53:02.750Z,91.83
2022-10-26T06:54:02.714Z,91.73
2022-10-26T06:55:02.761Z,92.13
2022-10-26T06:56:02.536Z,92.13
2022-10-26T06:57:02.514Z,92.03
2022-10-26T06:58:02.448Z,91.93
2022-10-26T06:59:04.857Z,92.33
2022-10-26T07:00:02.595Z,92.74
2022-10-26T07:01:02.717Z,91.83
2022-10-26T07:02:05.655Z,91.93
2022-10-26T07:03:02.833Z,92.03
2022-10-26T07:04:03.106Z,92.24
2022-10-26T07:05:02.471Z,92.24
2022-10-26T07:06:02.895Z,92.03
2022-10-26T07:07:03.173Z,92.13
2022-10-26T07:08:03.204Z,92.24
2022-10-26T07:09:03.275Z,92.13
2022-10-26T07:10:03.270Z,92.03
2022-10-26T07:11:03.221Z,91.93
2022-10-26T07:12:03.484Z,92.03
2022-10-26T07:13:03.004Z,91.83
2022-10-26T07:14:03.647Z,91.53
2022-10-26T07:15:03.473Z,92.03
2022-10-26T07:16:03.549Z,92.03
2022-10-26T07:17:03.669Z,91.83
2022-10-26T07:18:03.586Z,91.63
2022-10-26T07:19:03.262Z,92.13
2022-10-26T07:20:03.291Z,92.13
2022-10-26T07:21:04.185Z,92.54
2022-10-26T07:22:03.078Z,92.24
2022-10-26T07:23:03.025Z,91.73
2022-10-26T07:24:03.034Z,92.03
2022-10-26T07:25:03.473Z,92.13
2022-10-26T07:26:03.358Z,91.93
2022-10-26T07:27:03.509Z,92.03
2022-10-26T07:28:03.004Z,91.63
2022-10-26T07:29:03.598Z,91.63
2022-10-26T07:30:03.336Z,91.63
2022-10-26T07:31:03.376Z,91.93
2022-10-26T07:32:02.812Z,92.24
2022-10-26T07:33:03.210Z,92.84
2022-10-26T07:34:02.964Z,93.04
2022-10-26T07:35:02.927Z,92.94
2022-10-26T07:36:03.141Z,92.64
2022-10-26T07:37:03.264Z,92.24
2022-10-26T07:38:02.753Z,92.24
2022-10-26T07:39:03.268Z,92.13
2022-10-26T07:40:05.758Z,92.03
2022-10-26T07:41:02.855Z,91.93
2022-10-26T07:42:03.356Z,91.83
2022-10-26T07:43:03.275Z,92.24
2022-10-26T07:44:03.313Z,92.24
2022-10-26T07:45:03.809Z,92.24
2022-10-26T07:46:03.272Z,92.03
2022-10-26T07:47:02.634Z,92.13
2022-10-26T07:48:03.221Z,92.13
2022-10-26T07:49:03.219Z,91.42
2022-10-26T07:50:03.112Z,91.83
2022-10-26T07:51:03.374Z,91.63
2022-10-26T07:52:03.175Z,91.63
2022-10-26T07:53:03.072Z,91.12
2022-10-26T07:54:02.879Z,91.53
2022-10-26T07:55:03.028Z,91.32
2022-10-26T07:56:03.076Z,91.12
2022-10-26T07:58:03.652Z,92.03
2022-10-26T07:59:03.739Z,91.63
2022-10-26T08:00:03.724Z,92.03
2022-10-26T08:01:04.071Z,91.93
2022-10-26T08:02:01.849Z,91.83
2022-10-26T08:03:01.657Z,91.73
2022-10-26T08:04:01.695Z,91.22
2022-10-26T08:05:01.971Z,91.28
2022-10-26T08:06:01.839Z,91.49
2022-10-26T08:07:01.779Z,91.18
2022-10-26T08:08:02.058Z,90.98
2022-10-26T08:09:01.998Z,90.78
2022-10-26T08:10:02.009Z,90.98
2022-10-26T08:11:02.047Z,90.88
2022-10-26T08:12:02.386Z,90.98
2022-10-26T08:13:02.277Z,90.78
2022-10-26T08:14:02.342Z,90.98
2022-10-26T08:15:02.391Z,91.28
2022-10-26T08:16:02.647Z,91.18
2022-10-26T08:17:02.492Z,91.08
2022-10-26T08:18:02.257Z,90.98
2022-10-26T08:19:02.668Z,91.18
2022-10-26T08:20:02.364Z,91.28
2022-10-26T08:21:10.663Z,91.08
2022-10-26T08:22:02.963Z,90.92
2022-10-26T08:23:02.753Z,90.92
2022-10-26T08:24:02.501Z,91.32
2022-10-26T08:25:02.576Z,91.32
2022-10-26T08:26:02.720Z,91.42
2022-10-26T08:27:02.489Z,91.83
2022-10-26T08:28:02.487Z,91.73
2022-10-26T08:29:02.099Z,92.13
2022-10-26T08:30:02.167Z,91.22
2022-10-26T08:31:02.229Z,91.53
2022-10-26T08:32:02.864Z,91.73
2022-10-26T08:33:02.495Z,92.03
2022-10-26T08:34:02.776Z,91.63
2022-10-26T08:35:02.686Z,91.63
2022-10-26T08:36:02.891Z,91.58
2022-10-26T08:37:02.876Z,91.49
2022-10-26T08:38:02.602Z,91.28
2022-10-26T08:39:02.666Z,91.18
2022-10-26T08:40:03.548Z,91.18
2022-10-26T08:41:02.561Z,90.67
2022-10-26T08:42:02.662Z,90.58
2022-10-26T08:43:02.280Z,90.78
2022-10-26T08:44:02.240Z,90.63
2022-10-26T08:45:02.079Z,90.17
2022-10-26T08:46:02.267Z,90.17
2022-10-26T08:47:02.944Z,90.67
2022-10-26T08:48:03.150Z,90.78
2022-10-26T08:49:02.832Z,90.83
2022-10-26T08:50:02.485Z,90.73
2022-10-26T08:51:02.531Z,90.53
2022-10-26T08:52:01.939Z,90.83
2022-10-26T08:53:01.585Z,90.94
2022-10-26T08:54:02.067Z,91.03
2022-10-26T08:55:02.251Z,90.19
2022-10-26T08:56:02.284Z,90.28
2022-10-26T08:57:02.394Z,90.19
2022-10-26T08:58:02.340Z,90.39
2022-10-26T08:59:02.855Z,90.39
2022-10-26T09:00:02.478Z,89.68
2022-10-26T09:01:02.641Z,89.68
2022-10-26T09:02:03.240Z,90.19
2022-10-26T09:03:02.568Z,90.69
2022-10-26T09:05:02.593Z,90.65
2022-10-26T09:06:02.554Z,90.45
2022-10-26T09:07:02.949Z,90.45
2022-10-26T09:08:02.932Z,90.75
2022-10-26T09:09:03.269Z,90.65
2022-10-26T09:10:03.132Z,90.00
2022-10-26T09:11:02.736Z,89.59
2022-10-26T09:12:02.438Z,90.00
2022-10-26T09:13:02.438Z,90.10
2022-10-26T09:14:02.909Z,89.59
2022-10-26T09:15:02.765Z,87.63
2022-10-26T09:16:02.426Z,88.08
2022-10-26T09:17:02.857Z,88.89
2022-10-26T09:18:02.742Z,89.65
2022-10-26T09:19:03.111Z,89.65
2022-10-26T09:20:02.976Z,89.55
2022-10-26T09:21:03.031Z,89.55
2022-10-26T09:22:03.684Z,89.21
2022-10-26T09:23:03.638Z,88.70
2022-10-26T09:24:03.245Z,88.60
2022-10-26T09:25:06.783Z,89.06
2022-10-26T09:26:03.045Z,88.66
2022-10-26T09:27:03.209Z,88.06
2022-10-26T09:28:03.191Z,88.46
2022-10-26T09:29:03.558Z,88.06
2022-10-26T09:30:03.588Z,87.85
2022-10-26T09:31:03.606Z,87.96
2022-10-26T09:32:02.788Z,88.16
2022-10-26T09:33:03.143Z,88.16
2022-10-26T09:34:02.787Z,87.76
2022-10-26T09:35:02.824Z,87.82
2022-10-26T09:36:03.429Z,88.02
2022-10-26T09:37:03.064Z,87.11
2022-10-26T09:38:03.417Z,87.31
2022-10-26T09:39:03.415Z,87.21
2022-10-26T09:40:03.245Z,87.82
2022-10-26T09:41:03.197Z,87.01
2022-10-26T09:42:02.725Z,86.71
2022-10-26T09:43:02.686Z,87.21
2022-10-26T09:44:03.286Z,86.66
2022-10-26T09:45:02.655Z,86.10
2022-10-26T09:46:03.155Z,86.71
2022-10-26T09:47:03.142Z,86.71
2022-10-26T09:48:05.264Z,87.31
2022-10-26T09:50:03.180Z,86.91
2022-10-26T09:51:04.752Z,86.81
2022-10-26T09:52:03.241Z,87.11
2022-10-26T09:53:03.298Z,86.87
2022-10-26T09:54:03.633Z,86.87
2022-10-26T09:55:03.723Z,87.77
2022-10-26T09:56:03.592Z,88.28
2022-10-26T09:57:03.216Z,87.87
2022-10-26T09:58:02.873Z,87.23
2022-10-26T09:59:02.602Z,87.93
2022-10-26T10:00:02.900Z,87.53
2022-10-26T10:01:03.189Z,86.93
2022-10-26T10:02:02.430Z,86.12
2022-10-26T10:03:02.821Z,86.08
2022-10-26T10:04:02.588Z,85.98
2022-10-26T10:05:02.844Z,86.48
2022-10-26T10:06:02.545Z,87.08
2022-10-26T10:07:02.616Z,87.04
2022-10-26T10:08:03.081Z,86.04
2022-10-26T10:09:02.909Z,85.44
2022-10-26T10:10:03.023Z,86.14
2022-10-26T10:11:02.849Z,86.34
2022-10-26T10:12:02.054Z,85.33
2022-10-26T10:13:01.930Z,85.80
2022-10-26T10:14:01.951Z,85.60
2022-10-26T10:15:02.062Z,85.70
2022-10-26T10:16:01.996Z,85.39
2022-10-26T10:17:02.678Z,84.80
2022-10-26T10:18:03.405Z,85.16
2022-10-26T10:19:02.760Z,84.65
2022-10-26T10:20:02.925Z,83.45
2022-10-26T10:21:02.740Z,83.85
2022-10-26T10:22:02.745Z,84.25
2022-10-26T10:23:02.613Z,85.22
2022-10-26T10:24:02.556Z,84.41
2022-10-26T10:25:02.510Z,84.41
2022-10-26T10:26:03.142Z,84.41
2022-10-26T10:27:02.393Z,84.97
2022-10-26T10:28:02.423Z,81.46
2022-10-26T10:29:02.246Z,80.96
2022-10-26T10:30:04.308Z,82.17
2022-10-26T10:31:02.287Z,81.76
2022-10-26T10:32:02.800Z,82.37
2022-10-26T10:33:02.763Z,82.82
2022-10-26T10:34:02.560Z,82.23
2022-10-26T10:35:02.987Z,82.43
2022-10-26T10:36:02.525Z,82.89
2022-10-26T10:37:02.542Z,83.09
2022-10-26T10:38:02.183Z,82.18
2022-10-26T10:39:02.538Z,81.18
2022-10-26T10:40:02.623Z,81.68
2022-10-26T10:41:02.130Z,82.18
2022-10-26T10:42:02.845Z,81.38
2022-10-26T10:43:02.525Z,81.38
2022-10-26T10:44:03.047Z,81.74
2022-10-26T10:45:02.632Z,81.55
2022-10-26T10:46:02.703Z,81.45
2022-10-26T10:47:02.328Z,79.74
2022-10-26T10:48:02.315Z,79.74
2022-10-26T10:49:02.001Z,80.15
2022-10-26T10:50:02.458Z,80.94
2022-10-26T10:51:01.934Z,80.61
2022-10-26T10:52:02.735Z,80.41
2022-10-26T10:53:02.822Z,80.91
2022-10-26T10:54:02.635Z,81.30
2022-10-26T10:55:02.988Z,80.57
2022-10-26T10:56:05.350Z,80.47
2022-10-26T10:57:02.845Z,80.27
2022-10-26T10:58:03.078Z,79.77
2022-10-26T10:59:03.052Z,79.77
2022-10-26T11:00:02.804Z,80.33
2022-10-26T11:01:02.845Z,79.63
2022-10-26T11:02:02.712Z,79.53
2022-10-26T11:03:02.554Z,80.23
2022-10-26T11:04:02.215Z,78.33
2022-10-26T11:05:02.306Z,78.63
2022-10-26T11:06:02.397Z,79.33
2022-10-26T11:07:02.278Z,79.49
2022-10-26T11:08:02.332Z,78.29
2022-10-26T11:09:02.409Z,77.79
2022-10-26T11:10:02.333Z,78.29
2022-10-26T11:11:01.982Z,79.49
2022-10-26T11:12:02.778Z,76.89
2022-10-26T11:13:02.742Z,78.29
2022-10-26T11:14:02.685Z,78.39
2022-10-26T11:15:02.775Z,78.96
2022-10-26T11:16:02.660Z,78.25
2022-10-26T11:17:02.499Z,77.36
2022-10-26T11:18:02.422Z,77.62
2022-10-26T11:19:02.333Z,76.72
2022-10-26T11:20:02.433Z,76.92
2022-10-26T11:21:02.541Z,76.02
2022-10-26T11:22:02.982Z,75.82
2022-10-26T11:23:02.774Z,75.38
2022-10-26T11:24:03.021Z,74.88
2022-10-26T11:25:02.837Z,75.38
2022-10-26T11:26:02.870Z,74.88
2022-10-26T11:27:02.376Z,75.59
2022-10-26T11:28:02.203Z,75.65
2022-10-26T11:29:02.440Z,74.75
2022-10-26T11:30:01.946Z,75.31
2022-10-26T11:31:02.196Z,75.01
2022-10-26T11:32:02.908Z,75.51
2022-10-26T11:33:02.734Z,74.18
2022-10-26T11:34:02.774Z,73.88
2022-10-26T11:35:02.786Z,74.08
2022-10-26T11:36:02.686Z,74.68
2022-10-26T11:37:01.760Z,74.54
2022-10-26T11:38:01.980Z,72.35
2022-10-26T11:39:06.173Z,71.25
2022-10-26T11:40:02.334Z,72.41
2022-10-26T11:41:02.397Z,73.41
2022-10-26T11:42:02.412Z,72.52
2022-10-26T11:43:02.610Z,71.88
2022-10-26T11:44:02.672Z,71.48
2022-10-26T11:45:02.792Z,70.39
2022-10-26T11:46:02.642Z,71.65
2022-10-26T11:47:02.638Z,69.96
2022-10-26T11:48:03.262Z,70.72
2022-10-26T11:49:02.984Z,68.43
2022-10-26T11:50:03.128Z,69.32
2022-10-26T11:51:03.176Z,69.73
2022-10-26T11:52:03.302Z,71.18
2022-10-26T11:53:02.380Z,71.68
2022-10-26T11:54:02.647Z,68.99
2022-10-26T11:55:02.724Z,68.57
2022-10-26T11:56:03.015Z,67.37
2022-10-26T11:57:02.841Z,67.47
2022-10-26T11:58:02.689Z,67.18
2022-10-26T12:00:02.037Z,68.16
2022-10-26T12:01:02.085Z,67.37
2022-10-26T12:02:02.101Z,68.86
2022-10-26T12:03:03.028Z,68.76
2022-10-26T12:04:02.498Z,67.07
2022-10-26T12:05:03.150Z,67.77
2022-10-26T12:06:03.156Z,67.18
2022-10-26T12:07:02.839Z,68.37
2022-10-26T12:08:02.891Z,67.94
2022-10-26T12:09:02.975Z,66.94
2022-10-26T12:10:02.767Z,67.74
2022-10-26T12:11:03.130Z,67.34
2022-10-26T12:12:02.860Z,66.64
2022-10-26T12:13:02.651Z,66.35
2022-10-26T12:14:02.707Z,66.51
2022-10-26T12:15:02.313Z,68.10
2022-10-26T12:16:04.284Z,68.70
2022-10-26T12:17:02.490Z,65.69
2022-10-26T12:18:03.124Z,64.83
2022-10-26T12:19:03.352Z,65.62
2022-10-26T12:20:03.034Z,68.10
2022-10-26T12:21:03.248Z,67.08
2022-10-26T12:22:03.167Z,65.39
2022-10-26T12:23:02.536Z,67.67
2022-10-26T12:24:02.681Z,66.75
2022-10-26T12:25:02.941Z,66.65
2022-10-26T12:26:03.011Z,67.05
2022-10-26T12:27:03.077Z,66.45
2022-10-26T12:28:02.373Z,65.56
2022-10-26T12:29:02.414Z,64.47
2022-10-26T12:30:02.499Z,65.56
2022-10-26T12:31:02.542Z,66.05
2022-10-26T12:32:02.622Z,64.79
2022-10-26T12:33:02.885Z,65.78
2022-10-26T12:34:03.372Z,64.70
2022-10-26T12:35:02.930Z,63.93
2022-10-26T12:36:03.066Z,64.43
2022-10-26T12:37:02.937Z,66.81
2022-10-26T12:38:02.708Z,64.66
2022-10-26T12:39:02.752Z,65.75
2022-10-26T12:40:02.608Z,66.25
2022-10-26T12:41:02.680Z,66.35
2022-10-26T12:42:02.354Z,66.55
2022-10-26T12:43:03.030Z,67.64
2022-10-26T12:44:06.014Z,67.04
2022-10-26T12:45:02.582Z,66.85
2022-10-26T12:46:02.627Z,67.04
2022-10-26T12:47:02.667Z,66.28
2022-10-26T12:48:10.687Z,66.28
2022-10-26T12:49:02.906Z,67.27
2022-10-26T12:50:02.870Z,66.11
2022-10-26T12:51:03.401Z,67.21
2022-10-26T12:53:03.415Z,66.71
2022-10-26T12:54:03.178Z,68.00
2022-10-26T12:55:03.258Z,66.91
2022-10-26T12:56:03.023Z,67.00
2022-10-26T12:57:03.102Z,67.70
2022-10-26T12:58:02.941Z,67.50
2022-10-26T12:59:04.763Z,68.10
2022-10-26T13:00:02.571Z,66.81